Time;durP1;ratioP1;P1;durP2;ratioP2;P2;SDS_P1;SDS_P2;PMS_P1;PMS_P2;Temp;Humidity;BMP_temperature;BMP_pressure;BME280_temperature;BME280_humidity;BME280_pressure;Samples;Min_cycle;Max_cycle;Signal;HPM_P1;HPM_P2
2022/04/10 00:00:47;;;;;;;19.15;13.20;;;;;;;;;;5015345;28;20038;-77
2022/04/10 00:03:13;;;;;;;19.17;14.38;;;;;;;;;;5010048;28;20537;-73
2022/04/10 00:05:41;;;;;;;15.43;12.80;;;;;;;;;;5016703;28;20015;-73
2022/04/10 00:08:11;;;;;;;17.30;13.35;;;;;;;;;;5017583;28;20085;-77
2022/04/10 00:10:37;;;;;;;15.98;13.30;;;;;;;;;;5018190;28;20029;-75
2022/04/10 00:13:18;;;;;;;17.60;13.32;;;;;;;;;;5016011;28;20049;-74
2022/04/10 00:16:05;;;;;;;17.27;13.98;;;;;;;;;;5026703;28;20016;-73
2022/04/10 00:19:04;;;;;;;17.23;13.52;;;;;;;;;;5020560;28;20026;-74
2022/04/10 00:21:46;;;;;;;18.90;13.93;;;;;;;;;;5025337;28;20046;-74
2022/04/10 00:24:17;;;;;;;16.70;13.52;;;;;;;;;;5038009;28;20026;-74
2022/04/10 00:27:01;;;;;;;17.67;14.10;;;;;;;;;;5037432;28;20026;-73
2022/04/10 00:29:27;;;;;;;17.25;14.20;;;;;;;;;;5037583;28;20030;-73
2022/04/10 00:31:53;;;;;;;18.88;13.60;;;;;;;;;;5033051;28;20018;-72
2022/04/10 00:34:28;;;;;;;18.10;13.65;;;;;;;;;;5035741;28;20026;-77
2022/04/10 00:36:54;;;;;;;15.63;13.18;;;;;;;;;;5018577;28;20038;-72
2022/04/10 00:39:20;;;;;;;17.52;13.63;;;;;;;;;;5024712;28;20049;-76
2022/04/10 00:41:46;;;;;;;18.35;14.27;;;;;;;;;;5038503;28;20033;-76
2022/04/10 00:44:18;;;;;;;15.43;13.27;;;;;;;;;;5023951;28;20023;-74
2022/04/10 00:46:44;;;;;;;15.55;13.18;;;;;;;;;;5042520;23;20039;-75
2022/04/10 00:49:10;;;;;;;17.17;13.55;;;;;;;;;;5054301;28;20029;-73
2022/04/10 00:51:46;;;;;;;15.00;12.07;;;;;;;;;;5056305;28;20017;-74
2022/04/10 00:54:28;;;;;;;15.23;13.50;;;;;;;;;;5051278;28;20025;-73
2022/04/10 00:56:55;;;;;;;13.73;12.32;;;;;;;;;;5061602;28;20035;-77
2022/04/10 00:59:22;;;;;;;13.68;11.98;;;;;;;;;;5060686;28;20037;-73
2022/04/10 01:01:48;;;;;;;14.15;12.20;;;;;;;;;;5056826;28;20026;-75
2022/04/10 01:04:16;;;;;;;14.35;11.85;;;;;;;;;;5058944;28;20073;-75
2022/04/10 01:06:47;;;;;;;13.98;12.02;;;;;;;;;;5055729;28;20073;-78
2022/04/10 01:09:14;;;;;;;14.77;12.57;;;;;;;;;;5058472;28;20058;-73
2022/04/10 01:11:40;;;;;;;16.50;12.77;;;;;;;;;;5057417;28;20009;-73
2022/04/10 01:14:06;;;;;;;13.48;11.20;;;;;;;;;;5059609;28;20053;-76
2022/04/10 01:16:32;;;;;;;14.27;11.52;;;;;;;;;;5063106;23;20056;-76
2022/04/10 01:18:58;;;;;;;12.68;10.50;;;;;;;;;;5058906;28;20056;-73
2022/04/10 01:21:28;;;;;;;11.57;10.27;;;;;;;;;;5050798;28;20412;-73
2022/04/10 01:23:55;;;;;;;12.60;10.35;;;;;;;;;;5052932;28;20030;-74
2022/04/10 01:26:22;;;;;;;12.13;9.60;;;;;;;;;;5055965;28;20034;-74
2022/04/10 01:28:55;;;;;;;13.02;10.20;;;;;;;;;;5031430;28;20029;-75
2022/04/10 01:31:23;;;;;;;10.45;9.10;;;;;;;;;;5041919;28;20022;-76
2022/04/10 01:34:15;;;;;;;12.13;9.70;;;;;;;;;;5052757;28;20037;-74
2022/04/10 01:36:42;;;;;;;14.52;10.18;;;;;;;;;;5040617;28;20022;-74
2022/04/10 01:39:09;;;;;;;12.95;9.70;;;;;;;;;;5052852;28;20033;-75
2022/04/10 01:41:35;;;;;;;11.15;9.95;;;;;;;;;;5047364;28;20034;-74
2022/04/10 01:44:02;;;;;;;11.18;9.38;;;;;;;;;;5044966;28;20034;-75
2022/04/10 01:46:29;;;;;;;12.07;10.32;;;;;;;;;;5138314;23;20065;-75
2022/04/10 01:48:55;;;;;;;13.95;10.85;;;;;;;;;;5051337;28;20034;-76
2022/04/10 01:51:21;;;;;;;12.80;10.57;;;;;;;;;;5051372;28;20028;-78
2022/04/10 01:53:48;;;;;;;12.35;10.80;;;;;;;;;;5053951;28;20025;-75
2022/04/10 01:56:14;;;;;;;12.40;10.32;;;;;;;;;;5051486;28;20025;-74
2022/04/10 01:58:41;;;;;;;12.43;10.65;;;;;;;;;;5052563;28;20056;-74
2022/04/10 02:01:07;;;;;;;14.93;11.00;;;;;;;;;;5034733;28;20053;-72
2022/04/10 02:03:34;;;;;;;12.95;11.07;;;;;;;;;;5049600;28;20032;-75
2022/04/10 02:06:00;;;;;;;13.40;11.32;;;;;;;;;;5049977;28;20017;-75
2022/04/10 02:08:29;;;;;;;13.48;11.60;;;;;;;;;;5051697;28;20041;-78
2022/04/10 02:10:55;;;;;;;13.60;12.05;;;;;;;;;;5047892;28;20036;-73
2022/04/10 02:13:21;;;;;;;14.23;11.20;;;;;;;;;;5039733;28;20029;-75
2022/04/10 02:15:53;;;;;;;12.15;10.85;;;;;;;;;;5057234;28;20025;-75
2022/04/10 02:18:25;;;;;;;13.20;11.13;;;;;;;;;;5046814;28;20057;-74
2022/04/10 02:20:52;;;;;;;13.15;11.02;;;;;;;;;;5049305;28;20045;-75
2022/04/10 02:23:47;;;;;;;12.48;11.20;;;;;;;;;;5041482;28;20039;-75
2022/04/10 02:26:13;;;;;;;13.90;12.45;;;;;;;;;;5054847;28;20029;-75
2022/04/10 02:28:40;;;;;;;13.88;11.98;;;;;;;;;;5053363;28;20014;-76
2022/04/10 02:31:06;;;;;;;12.93;11.60;;;;;;;;;;5048344;28;20033;-75
2022/04/10 02:33:37;;;;;;;12.93;10.95;;;;;;;;;;5043029;28;20040;-74
2022/04/10 02:36:16;;;;;;;11.98;10.68;;;;;;;;;;5044095;28;20014;-75
2022/04/10 02:39:08;;;;;;;13.25;11.38;;;;;;;;;;5048585;28;20005;-77
2022/04/10 02:41:37;;;;;;;11.85;10.07;;;;;;;;;;5039268;28;20049;-74
2022/04/10 02:44:03;;;;;;;12.18;10.70;;;;;;;;;;5049403;28;20005;-74
2022/04/10 02:46:29;;;;;;;13.68;10.30;;;;;;;;;;5070682;23;20104;-78
2022/04/10 02:48:55;;;;;;;11.13;9.95;;;;;;;;;;5058857;28;20018;-79
2022/04/10 02:51:21;;;;;;;10.13;9.13;;;;;;;;;;5050434;28;20021;-73
2022/04/10 02:53:47;;;;;;;10.95;9.80;;;;;;;;;;5060319;28;20041;-74
2022/04/10 02:56:13;;;;;;;9.20;8.30;;;;;;;;;;5060184;28;20009;-77
2022/04/10 02:58:39;;;;;;;10.10;9.02;;;;;;;;;;5043017;28;20014;-75
2022/04/10 03:01:05;;;;;;;9.38;7.93;;;;;;;;;;5045804;28;20037;-77
2022/04/10 03:03:31;;;;;;;9.25;8.20;;;;;;;;;;5058898;28;20012;-73
2022/04/10 03:05:57;;;;;;;8.77;7.85;;;;;;;;;;5058532;28;20026;-77
2022/04/10 03:08:23;;;;;;;9.13;8.23;;;;;;;;;;5057613;28;20073;-75
2022/04/10 03:10:49;;;;;;;11.63;8.60;;;;;;;;;;5046345;28;20045;-76
2022/04/10 03:13:16;;;;;;;9.02;8.13;;;;;;;;;;5052185;28;20001;-73
2022/04/10 03:15:42;;;;;;;9.07;7.60;;;;;;;;;;5047473;28;20089;-75
2022/04/10 03:18:18;;;;;;;8.00;7.20;;;;;;;;;;5057150;28;20124;-76
2022/04/10 03:21:00;;;;;;;8.52;7.07;;;;;;;;;;5047089;28;20029;-78
2022/04/10 03:23:26;;;;;;;9.45;7.78;;;;;;;;;;5049888;28;20058;-76
2022/04/10 03:25:52;;;;;;;9.35;7.57;;;;;;;;;;5038778;28;20010;-77
2022/04/10 03:28:18;;;;;;;8.40;7.47;;;;;;;;;;5052830;28;20060;-78
2022/04/10 03:30:45;;;;;;;8.50;7.30;;;;;;;;;;5051396;28;20014;-78
2022/04/10 03:33:11;;;;;;;8.88;7.63;;;;;;;;;;5052466;28;20017;-77
2022/04/10 03:35:37;;;;;;;8.55;7.10;;;;;;;;;;5053720;28;20039;-73
2022/04/10 03:38:03;;;;;;;9.60;7.72;;;;;;;;;;5049712;28;20002;-76
2022/04/10 03:40:29;;;;;;;10.48;8.05;;;;;;;;;;5048829;28;20013;-77
2022/04/10 03:42:55;;;;;;;9.55;8.10;;;;;;;;;;5027465;28;20049;-74
2022/04/10 03:45:21;;;;;;;8.95;8.05;;;;;;;;;;5038793;28;20033;-74
2022/04/10 03:47:48;;;;;;;9.07;8.18;;;;;;;;;;5052686;28;20057;-74
2022/04/10 03:50:14;;;;;;;10.65;8.30;;;;;;;;;;5044989;28;20061;-75
2022/04/10 03:52:40;;;;;;;9.07;8.10;;;;;;;;;;5049721;28;20045;-76
2022/04/10 03:55:07;;;;;;;9.00;8.10;;;;;;;;;;5047386;28;20026;-76
2022/04/10 03:57:38;;;;;;;12.77;8.85;;;;;;;;;;5041981;28;20034;-76
2022/04/10 04:00:20;;;;;;;11.35;9.25;;;;;;;;;;5050586;28;20065;-76
2022/04/10 04:03:05;;;;;;;10.40;8.73;;;;;;;;;;5041798;28;20026;-75
2022/04/10 04:05:49;;;;;;;11.20;9.30;;;;;;;;;;5037923;28;20074;-79
2022/04/10 04:08:22;;;;;;;10.65;9.20;;;;;;;;;;5037450;28;20041;-78
2022/04/10 04:10:54;;;;;;;10.98;9.80;;;;;;;;;;5037609;28;20036;-77
2022/04/10 04:13:20;;;;;;;12.10;9.48;;;;;;;;;;5029119;28;20033;-73
2022/04/10 04:15:49;;;;;;;10.85;8.95;;;;;;;;;;5028434;28;20053;-75
2022/04/10 04:18:15;;;;;;;11.18;9.98;;;;;;;;;;5031903;28;20026;-74
2022/04/10 04:20:43;;;;;;;10.88;9.73;;;;;;;;;;5032032;28;20017;-74
2022/04/10 04:23:19;;;;;;;12.50;9.68;;;;;;;;;;5033585;28;20034;-76
2022/04/10 04:25:46;;;;;;;13.85;9.85;;;;;;;;;;5036441;28;20002;-75
2022/04/10 04:28:12;;;;;;;11.25;10.02;;;;;;;;;;5034349;28;20036;-74
2022/04/10 04:30:38;;;;;;;12.95;9.80;;;;;;;;;;5040306;28;20030;-74
2022/04/10 04:33:09;;;;;;;11.90;9.38;;;;;;;;;;5037132;28;20032;-74
2022/04/10 04:35:43;;;;;;;11.32;9.63;;;;;;;;;;5038154;28;20021;-73
2022/04/10 04:38:11;;;;;;;10.63;9.52;;;;;;;;;;5037440;28;20017;-76
2022/04/10 04:40:38;;;;;;;13.25;10.40;;;;;;;;;;5037454;28;20494;-75
2022/04/10 04:43:10;;;;;;;13.55;10.02;;;;;;;;;;5051270;28;20013;-74
2022/04/10 04:45:36;;;;;;;11.90;10.07;;;;;;;;;;5026477;23;20045;-76
2022/04/10 04:48:02;;;;;;;15.23;11.00;;;;;;;;;;5043862;28;20034;-75
2022/04/10 04:50:29;;;;;;;13.48;11.10;;;;;;;;;;5026579;28;20037;-75
2022/04/10 04:52:57;;;;;;;12.00;9.50;;;;;;;;;;5053516;28;20026;-74
2022/04/10 04:55:25;;;;;;;15.43;10.57;;;;;;;;;;5052025;28;20014;-78
2022/04/10 04:57:51;;;;;;;10.98;9.27;;;;;;;;;;5053466;28;20080;-75
2022/04/10 05:00:19;;;;;;;12.05;9.30;;;;;;;;;;5035643;28;20042;-75
2022/04/10 05:02:46;;;;;;;13.45;9.27;;;;;;;;;;5040045;28;20021;-76
2022/04/10 05:05:25;;;;;;;13.07;9.38;;;;;;;;;;5046064;28;20030;-76
2022/04/10 05:07:52;;;;;;;11.65;9.05;;;;;;;;;;5046679;28;20176;-78
2022/04/10 05:10:21;;;;;;;12.82;9.40;;;;;;;;;;5020181;28;20448;-74
2022/04/10 05:12:48;;;;;;;10.52;8.73;;;;;;;;;;5040586;28;20025;-73
2022/04/10 05:15:14;;;;;;;10.80;8.63;;;;;;;;;;5040052;28;20109;-75
2022/04/10 05:17:43;;;;;;;12.93;9.43;;;;;;;;;;5052233;28;20053;-78
2022/04/10 05:20:11;;;;;;;11.27;8.90;;;;;;;;;;5040464;28;20037;-74
2022/04/10 05:22:37;;;;;;;11.02;9.32;;;;;;;;;;5034659;28;20026;-75
2022/04/10 05:27:51;;;;;;;11.43;9.13;;;;;;;;;;5045799;28;20033;-78
2022/04/10 05:30:37;;;;;;;12.23;9.90;;;;;;;;;;5037912;28;20044;-77
2022/04/10 05:33:09;;;;;;;11.75;9.27;;;;;;;;;;5023894;28;20030;-71
2022/04/10 05:35:35;;;;;;;13.13;9.95;;;;;;;;;;5047490;28;20038;-70
2022/04/10 05:38:01;;;;;;;14.00;9.82;;;;;;;;;;5050777;28;20032;-75
2022/04/10 05:40:28;;;;;;;13.15;10.25;;;;;;;;;;5027807;28;20040;-74
2022/04/10 05:42:54;;;;;;;15.20;11.02;;;;;;;;;;5037435;28;20029;-74
2022/04/10 05:45:20;;;;;;;13.85;10.73;;;;;;;;;;5028124;28;20109;-71
2022/04/10 05:47:46;;;;;;;15.05;11.00;;;;;;;;;;5028674;28;20042;-74
2022/04/10 05:50:12;;;;;;;12.43;10.35;;;;;;;;;;5026819;28;20467;-74
2022/04/10 05:53:11;;;;;;;12.43;9.73;;;;;;;;;;5031111;28;20056;-78
2022/04/10 05:55:37;;;;;;;11.85;10.50;;;;;;;;;;5018493;28;20030;-76
2022/04/10 05:58:04;;;;;;;14.68;11.18;;;;;;;;;;5010174;28;20026;-77
2022/04/10 06:00:30;;;;;;;12.50;10.95;;;;;;;;;;5019607;28;20395;-77
2022/04/10 06:03:00;;;;;;;12.60;10.25;;;;;;;;;;5009718;28;20125;-77
2022/04/10 06:05:27;;;;;;;12.55;11.25;;;;;;;;;;5023670;28;20030;-76
2022/04/10 06:07:53;;;;;;;13.60;9.63;;;;;;;;;;5014794;28;20129;-75
2022/04/10 06:10:19;;;;;;;14.48;11.07;;;;;;;;;;5011459;28;20030;-76
2022/04/10 06:12:45;;;;;;;15.38;11.48;;;;;;;;;;5015434;28;20029;-76
2022/04/10 06:15:11;;;;;;;14.00;11.40;;;;;;;;;;5022551;28;20037;-76
2022/04/10 06:17:37;;;;;;;16.08;11.68;;;;;;;;;;5017917;28;20033;-76
2022/04/10 06:20:05;;;;;;;13.45;10.82;;;;;;;;;;5020211;28;20037;-77
2022/04/10 06:22:56;;;;;;;16.17;11.23;;;;;;;;;;5031286;28;20042;-78
2022/04/10 06:25:22;;;;;;;11.98;9.85;;;;;;;;;;5035953;28;20117;-77
2022/04/10 06:27:48;;;;;;;12.35;10.93;;;;;;;;;;5034968;28;20029;-77
2022/04/10 06:30:14;;;;;;;12.90;10.48;;;;;;;;;;5027561;28;20014;-75
2022/04/10 06:35:16;;;;;;;12.60;10.60;;;;;;;;;;5699968;23;20052;-80
2022/04/10 06:37:43;;;;;;;16.35;11.23;;;;;;;;;;5017011;28;20553;-77
2022/04/10 06:40:09;;;;;;;20.10;17.45;;;;;;;;;;5026188;28;20041;-71
2022/04/10 06:42:35;;;;;;;18.58;16.65;;;;;;;;;;5021776;28;20030;-72
2022/04/10 06:45:01;;;;;;;13.30;11.98;;;;;;;;;;5022475;28;20504;-77
2022/04/10 06:47:31;;;;;;;11.90;10.57;;;;;;;;;;5027176;28;20026;-78
2022/04/10 06:49:57;;;;;;;12.98;10.80;;;;;;;;;;5017313;28;20025;-75
2022/04/10 06:52:23;;;;;;;11.52;9.55;;;;;;;;;;5012230;28;20034;-74
2022/04/10 06:54:49;;;;;;;12.55;9.93;;;;;;;;;;5032618;28;20034;-77
2022/04/10 06:57:16;;;;;;;11.35;9.27;;;;;;;;;;5019694;28;20113;-77
2022/04/10 06:59:42;;;;;;;11.80;9.05;;;;;;;;;;5031350;28;20045;-76
2022/04/10 07:02:08;;;;;;;11.68;9.15;;;;;;;;;;5023887;28;20030;-76
2022/04/10 07:04:34;;;;;;;10.35;7.60;;;;;;;;;;5024212;28;21102;-77
2022/04/10 07:07:16;;;;;;;10.43;7.53;;;;;;;;;;5020620;28;20037;-78
2022/04/10 07:09:42;;;;;;;10.88;7.55;;;;;;;;;;5027547;28;20026;-76
2022/04/10 07:12:08;;;;;;;10.23;7.50;;;;;;;;;;5024558;28;20022;-76
2022/04/10 07:14:34;;;;;;;10.25;7.43;;;;;;;;;;5019467;28;20120;-77
2022/04/10 07:17:03;;;;;;;11.00;7.78;;;;;;;;;;5020018;28;20109;-78
2022/04/10 07:19:29;;;;;;;9.75;7.32;;;;;;;;;;5021239;28;20041;-75
2022/04/10 07:24:56;;;;;;;10.63;8.40;;;;;;;;;;5006761;28;20110;-76
2022/04/10 07:27:37;;;;;;;11.00;8.20;;;;;;;;;;5031947;28;20093;-78
2022/04/10 07:30:03;;;;;;;10.40;7.90;;;;;;;;;;5014816;28;20035;-78
2022/04/10 07:32:39;;;;;;;11.02;8.75;;;;;;;;;;5003848;28;20041;-74
2022/04/10 07:35:05;;;;;;;10.75;7.93;;;;;;;;;;5009025;28;20097;-77
2022/04/10 07:37:32;;;;;;;9.77;7.93;;;;;;;;;;5002113;28;20018;-75
2022/04/10 07:39:58;;;;;;;11.63;7.80;;;;;;;;;;4994278;28;20035;-77
2022/04/10 07:42:26;;;;;;;11.10;8.10;;;;;;;;;;5009334;28;20034;-73
2022/04/10 07:44:56;;;;;;;13.13;8.60;;;;;;;;;;5003561;28;20601;-74
2022/04/10 07:47:25;;;;;;;20.48;12.18;;;;;;;;;;5001140;28;20520;-78
2022/04/10 07:49:53;;;;;;;15.57;13.40;;;;;;;;;;4993822;28;20037;-76
2022/04/10 07:52:19;;;;;;;10.63;8.68;;;;;;;;;;4995550;28;20077;-75
2022/04/10 07:54:45;;;;;;;10.80;7.95;;;;;;;;;;5003392;28;20148;-79
2022/04/10 07:57:11;;;;;;;12.93;8.30;;;;;;;;;;5000233;28;20377;-77
2022/04/10 07:59:38;;;;;;;12.05;8.52;;;;;;;;;;5005435;28;20046;-78
2022/04/10 08:02:05;;;;;;;11.18;8.32;;;;;;;;;;5026961;28;20022;-78
2022/04/10 08:04:31;;;;;;;12.05;8.35;;;;;;;;;;5027939;28;20044;-76
2022/04/10 08:07:02;;;;;;;10.10;8.70;;;;;;;;;;5026470;28;20400;-74
2022/04/10 08:09:28;;;;;;;9.88;7.95;;;;;;;;;;5030933;28;20025;-76
2022/04/10 08:11:54;;;;;;;9.75;7.78;;;;;;;;;;5018734;28;20025;-74
2022/04/10 08:14:20;;;;;;;8.27;7.30;;;;;;;;;;5020348;28;21544;-75
2022/04/10 08:16:46;;;;;;;9.88;8.07;;;;;;;;;;5008877;28;20026;-73
2022/04/10 08:19:15;;;;;;;12.48;8.27;;;;;;;;;;5013715;28;20025;-74
2022/04/10 08:21:41;;;;;;;12.38;9.13;;;;;;;;;;5010859;28;20029;-75
2022/04/10 08:24:23;;;;;;;10.70;7.88;;;;;;;;;;5020585;28;20105;-79
2022/04/10 08:26:49;;;;;;;10.73;7.35;;;;;;;;;;5035436;28;20009;-70
2022/04/10 08:29:15;;;;;;;11.45;8.00;;;;;;;;;;5038392;28;20017;-74
2022/04/10 08:31:41;;;;;;;11.50;7.80;;;;;;;;;;5033029;28;20021;-74
2022/04/10 08:34:11;;;;;;;9.40;7.47;;;;;;;;;;5044463;28;20029;-73
2022/04/10 08:36:39;;;;;;;10.02;7.65;;;;;;;;;;5007502;28;20058;-74
2022/04/10 08:39:07;;;;;;;8.75;7.38;;;;;;;;;;5017060;28;20025;-74
2022/04/10 08:41:39;;;;;;;9.70;6.97;;;;;;;;;;5014071;28;20038;-75
2022/04/10 08:44:06;;;;;;;13.38;7.40;;;;;;;;;;5023279;28;20067;-76
2022/04/10 08:46:33;;;;;;;10.75;7.65;;;;;;;;;;5028191;28;20037;-73
2022/04/10 08:49:00;;;;;;;12.15;7.55;;;;;;;;;;5016250;28;20475;-75
2022/04/10 08:51:26;;;;;;;14.45;8.20;;;;;;;;;;5021618;28;20029;-75
2022/04/10 08:53:56;;;;;;;11.55;7.40;;;;;;;;;;5018851;28;20080;-77
2022/04/10 08:56:23;;;;;;;11.50;7.50;;;;;;;;;;5023670;28;20105;-77
2022/04/10 08:58:50;;;;;;;12.50;7.38;;;;;;;;;;5018772;28;20022;-78
2022/04/10 09:01:18;;;;;;;9.02;7.82;;;;;;;;;;4999968;28;20033;-74
2022/04/10 09:03:47;;;;;;;8.15;7.20;;;;;;;;;;5023872;28;20087;-76
2022/04/10 09:06:13;;;;;;;9.75;7.75;;;;;;;;;;5015632;28;20501;-76
2022/04/10 09:08:40;;;;;;;10.25;7.72;;;;;;;;;;5015497;28;20407;-73
2022/04/10 09:11:07;;;;;;;11.00;7.70;;;;;;;;;;5012564;28;20108;-74
2022/04/10 09:13:43;;;;;;;10.13;8.32;;;;;;;;;;5019383;28;20116;-77
2022/04/10 09:16:16;;;;;;;13.85;7.85;;;;;;;;;;5018830;28;20052;-75
2022/04/10 09:18:56;;;;;;;10.63;8.30;;;;;;;;;;5022617;28;20503;-76
2022/04/10 09:21:30;;;;;;;12.57;8.40;;;;;;;;;;5019298;28;20061;-74
2022/04/10 09:24:09;;;;;;;12.95;7.97;;;;;;;;;;5021745;28;20013;-72
2022/04/10 09:26:58;;;;;;;11.80;9.48;;;;;;;;;;5032659;28;20029;-72
2022/04/10 09:29:34;;;;;;;14.70;10.00;;;;;;;;;;5034130;28;20085;-74
2022/04/10 09:32:03;;;;;;;13.40;11.18;;;;;;;;;;5030510;28;20044;-74
2022/04/10 09:34:29;;;;;;;12.45;9.02;;;;;;;;;;5031291;28;20026;-71
2022/04/10 09:37:03;;;;;;;9.27;7.75;;;;;;;;;;5037054;28;20069;-71
2022/04/10 09:39:37;;;;;;;10.00;8.00;;;;;;;;;;5029598;28;20026;-71
2022/04/10 09:42:05;;;;;;;13.30;8.98;;;;;;;;;;5029466;28;20028;-72
2022/04/10 09:44:34;;;;;;;11.80;7.40;;;;;;;;;;5030863;28;20061;-72
2022/04/10 09:47:02;;;;;;;9.98;7.55;;;;;;;;;;5031632;28;20034;-72
2022/04/10 09:49:32;;;;;;;10.35;7.68;;;;;;;;;;5033466;28;20018;-72
2022/04/10 09:52:11;;;;;;;9.60;7.57;;;;;;;;;;5031698;28;20070;-72
2022/04/10 09:54:47;;;;;;;18.10;10.57;;;;;;;;;;5033039;28;20030;-76
2022/04/10 09:57:15;;;;;;;19.48;14.88;;;;;;;;;;5028643;28;20030;-71
2022/04/10 09:59:48;;;;;;;18.38;11.02;;;;;;;;;;5030609;28;20068;-71
2022/04/10 10:02:15;;;;;;;10.05;6.63;;;;;;;;;;5034012;28;20034;-71
2022/04/10 10:04:42;;;;;;;9.80;7.70;;;;;;;;;;5041708;28;20048;-71
2022/04/10 10:07:12;;;;;;;11.45;7.93;;;;;;;;;;5026800;28;20475;-71
2022/04/10 10:09:39;;;;;;;7.43;5.88;;;;;;;;;;5032453;28;20415;-72
2022/04/10 10:12:05;;;;;;;8.82;6.05;;;;;;;;;;5035620;28;20034;-74
2022/04/10 10:14:33;;;;;;;9.68;6.10;;;;;;;;;;5032004;28;20037;-71
2022/04/10 10:17:02;;;;;;;6.85;4.80;;;;;;;;;;5023118;28;20012;-71
2022/04/10 10:19:35;;;;;;;7.55;5.18;;;;;;;;;;5033966;28;20032;-71
2022/04/10 10:22:04;;;;;;;10.32;7.05;;;;;;;;;;5027853;28;20030;-71
2022/04/10 10:24:33;;;;;;;7.95;5.85;;;;;;;;;;5042458;28;20060;-71
2022/04/10 10:27:08;;;;;;;11.52;9.98;;;;;;;;;;5040876;28;20032;-74
2022/04/10 10:29:37;;;;;;;10.27;5.70;;;;;;;;;;5034999;28;20009;-79
2022/04/10 10:32:14;;;;;;;7.57;6.10;;;;;;;;;;5034537;28;20037;-72
2022/04/10 10:34:42;;;;;;;7.75;5.90;;;;;;;;;;5034039;28;20076;-77
2022/04/10 10:37:08;;;;;;;13.65;9.00;;;;;;;;;;5036055;28;20026;-71
2022/04/10 10:39:50;;;;;;;9.13;6.72;;;;;;;;;;5027425;28;20030;-71
2022/04/10 10:42:16;;;;;;;21.25;11.00;;;;;;;;;;5032879;28;20045;-73
2022/04/10 10:44:44;;;;;;;15.13;10.40;;;;;;;;;;5032711;28;20033;-71
2022/04/10 10:47:18;;;;;;;9.25;6.28;;;;;;;;;;5041470;28;20161;-72
2022/04/10 10:49:45;;;;;;;14.68;7.38;;;;;;;;;;5033754;28;20016;-71
2022/04/10 10:52:13;;;;;;;9.63;5.63;;;;;;;;;;5040861;28;20481;-70
2022/04/10 10:54:53;;;;;;;14.30;9.57;;;;;;;;;;5032741;28;20040;-71
2022/04/10 10:57:37;;;;;;;15.90;7.35;;;;;;;;;;5032837;28;20053;-76
2022/04/10 11:00:08;;;;;;;10.52;6.03;;;;;;;;;;5016826;28;20084;-75
2022/04/10 11:02:40;;;;;;;7.90;6.05;;;;;;;;;;5024294;28;20033;-76
2022/04/10 11:05:07;;;;;;;13.80;6.88;;;;;;;;;;5021338;28;20486;-74
2022/04/10 11:07:39;;;;;;;8.88;5.38;;;;;;;;;;5021382;28;20030;-74
2022/04/10 11:10:11;;;;;;;8.25;5.63;;;;;;;;;;5033764;28;20037;-76
2022/04/10 11:13:03;;;;;;;5.75;5.05;;;;;;;;;;5029874;28;20036;-76
2022/04/10 11:15:32;;;;;;;8.85;6.10;;;;;;;;;;5035261;28;20034;-72
2022/04/10 11:18:04;;;;;;;8.68;5.38;;;;;;;;;;5030738;28;20056;-71
2022/04/10 11:20:32;;;;;;;8.88;5.40;;;;;;;;;;5028759;28;20045;-70
2022/04/10 11:23:05;;;;;;;6.57;5.05;;;;;;;;;;5023517;28;20026;-75
2022/04/10 11:25:38;;;;;;;7.07;4.85;;;;;;;;;;5021309;28;20029;-73
2022/04/10 11:28:04;;;;;;;7.13;5.13;;;;;;;;;;5020777;28;20022;-75
2022/04/10 11:30:31;;;;;;;5.40;4.53;;;;;;;;;;5028854;28;20022;-76
2022/04/10 11:32:57;;;;;;;8.68;4.82;;;;;;;;;;5027733;28;20036;-76
2022/04/10 11:35:29;;;;;;;7.93;4.50;;;;;;;;;;5028622;28;20049;-76
2022/04/10 11:37:57;;;;;;;6.90;3.75;;;;;;;;;;5029635;28;20026;-77
2022/04/10 11:40:34;;;;;;;6.78;4.50;;;;;;;;;;5029586;28;20026;-77
2022/04/10 11:43:03;;;;;;;7.43;4.00;;;;;;;;;;5035773;28;20511;-77
2022/04/10 11:45:31;;;;;;;6.10;4.15;;;;;;;;;;5032917;28;20046;-76
2022/04/10 11:47:57;;;;;;;5.95;4.30;;;;;;;;;;5035838;28;20030;-75
2022/04/10 11:50:26;;;;;;;7.50;4.30;;;;;;;;;;5034626;28;20010;-72
2022/04/10 11:53:03;;;;;;;7.88;4.47;;;;;;;;;;5021019;28;20034;-73
2022/04/10 11:55:33;;;;;;;7.63;4.57;;;;;;;;;;5030823;28;20033;-75
2022/04/10 11:58:01;;;;;;;6.07;4.10;;;;;;;;;;5030319;28;20025;-76
2022/04/10 12:00:29;;;;;;;7.00;4.15;;;;;;;;;;5021567;28;20097;-76
2022/04/10 12:02:55;;;;;;;9.23;4.28;;;;;;;;;;5005454;28;20034;-75
2022/04/10 12:05:21;;;;;;;6.15;3.83;;;;;;;;;;5024402;28;20046;-77
2022/04/10 12:07:58;;;;;;;6.72;4.20;;;;;;;;;;5022380;28;20029;-70
2022/04/10 12:10:29;;;;;;;7.43;4.38;;;;;;;;;;5027982;28;20017;-75
2022/04/10 12:12:55;;;;;;;8.35;5.00;;;;;;;;;;5024621;28;20033;-77
2022/04/10 12:15:24;;;;;;;9.25;6.40;;;;;;;;;;5019862;28;20050;-74
2022/04/10 12:18:03;;;;;;;9.43;6.03;;;;;;;;;;5029360;28;20068;-76
2022/04/10 12:20:31;;;;;;;8.88;5.60;;;;;;;;;;5029804;28;20068;-77
2022/04/10 12:23:03;;;;;;;8.70;5.43;;;;;;;;;;5005635;28;20049;-75
2022/04/10 12:25:32;;;;;;;9.10;5.22;;;;;;;;;;5028717;28;20055;-76
2022/04/10 12:27:58;;;;;;;8.55;5.35;;;;;;;;;;5026094;28;20411;-76
2022/04/10 12:30:26;;;;;;;10.00;5.97;;;;;;;;;;5022045;28;20044;-76
2022/04/10 12:32:52;;;;;;;6.75;5.25;;;;;;;;;;5024919;28;20712;-76
2022/04/10 12:35:18;;;;;;;10.15;6.22;;;;;;;;;;5021077;28;20056;-70
2022/04/10 12:38:00;;;;;;;7.00;5.13;;;;;;;;;;5000861;28;20113;-76
2022/04/10 12:40:29;;;;;;;11.50;6.88;;;;;;;;;;4994833;28;20542;-76
2022/04/10 12:43:03;;;;;;;10.05;5.32;;;;;;;;;;4998255;28;20042;-76
2022/04/10 12:45:30;;;;;;;8.88;5.47;;;;;;;;;;4997664;28;20030;-71
2022/04/10 12:47:56;;;;;;;9.93;4.97;;;;;;;;;;5005734;28;20539;-73
2022/04/10 12:50:23;;;;;;;9.65;6.63;;;;;;;;;;5003848;28;20391;-70
2022/04/10 12:52:55;;;;;;;5.55;3.80;;;;;;;;;;5005479;28;20033;-73
2022/04/10 12:55:21;;;;;;;18.35;10.82;;;;;;;;;;5002474;28;20038;-74
2022/04/10 12:58:09;;;;;;;11.45;6.68;;;;;;;;;;5005109;28;20388;-74
2022/04/10 13:00:37;;;;;;;7.82;4.32;;;;;;;;;;5005976;28;20179;-74
2022/04/10 13:03:19;;;;;;;7.68;4.70;;;;;;;;;;5004748;28;20514;-71
2022/04/10 13:06:10;;;;;;;6.53;4.40;;;;;;;;;;5005178;28;20036;-75
2022/04/10 13:08:40;;;;;;;7.32;4.85;;;;;;;;;;5010731;28;20057;-75
2022/04/10 13:11:09;;;;;;;9.02;5.70;;;;;;;;;;5003549;28;20030;-70
2022/04/10 13:13:54;;;;;;;6.40;4.35;;;;;;;;;;5014086;28;20029;-78
2022/04/10 13:16:26;;;;;;;12.18;7.47;;;;;;;;;;5010064;28;20066;-72
2022/04/10 13:18:52;;;;;;;11.07;7.53;;;;;;;;;;5010515;28;20089;-71
2022/04/10 13:21:18;;;;;;;6.95;4.63;;;;;;;;;;5008402;28;20035;-77
2022/04/10 13:23:44;;;;;;;14.48;6.32;;;;;;;;;;5006458;28;20057;-76
2022/04/10 13:26:10;;;;;;;7.28;4.40;;;;;;;;;;5006608;28;20124;-77
2022/04/10 13:28:36;;;;;;;6.70;5.10;;;;;;;;;;5009924;28;20023;-75
2022/04/10 13:31:07;;;;;;;6.70;4.97;;;;;;;;;;5004468;28;20034;-77
2022/04/10 13:33:33;;;;;;;6.10;4.18;;;;;;;;;;5016246;28;20118;-76
2022/04/10 13:35:59;;;;;;;7.40;3.70;;;;;;;;;;5021239;28;20045;-78
2022/04/10 13:38:25;;;;;;;6.72;3.63;;;;;;;;;;5030055;28;20014;-73
2022/04/10 13:40:51;;;;;;;6.10;3.72;;;;;;;;;;5021278;28;20045;-72
2022/04/10 13:43:17;;;;;;;6.82;3.83;;;;;;;;;;5018454;28;20026;-69
2022/04/10 13:45:43;;;;;;;7.78;4.50;;;;;;;;;;5024246;28;20790;-73
2022/04/10 13:48:09;;;;;;;7.38;4.25;;;;;;;;;;5021701;28;20026;-75
2022/04/10 13:50:36;;;;;;;5.95;4.13;;;;;;;;;;5030184;28;20037;-75
2022/04/10 13:53:02;;;;;;;8.50;5.03;;;;;;;;;;5017233;28;20092;-75
2022/04/10 13:55:28;;;;;;;5.85;4.00;;;;;;;;;;5027293;28;20029;-75
2022/04/10 13:57:54;;;;;;;7.78;4.10;;;;;;;;;;5020455;28;20028;-73
2022/04/10 14:00:20;;;;;;;6.50;4.85;;;;;;;;;;5028286;28;20060;-70
2022/04/10 14:02:46;;;;;;;6.65;4.43;;;;;;;;;;5017936;28;20091;-69
2022/04/10 14:05:12;;;;;;;7.57;4.65;;;;;;;;;;5018074;28;20045;-69
2022/04/10 14:07:38;;;;;;;8.30;4.72;;;;;;;;;;5019423;28;20030;-71
2022/04/10 14:10:05;;;;;;;7.95;4.80;;;;;;;;;;5016330;28;20029;-74
2022/04/10 14:12:31;;;;;;;6.82;4.90;;;;;;;;;;5020930;28;20044;-74
2022/04/10 14:14:58;;;;;;;7.18;4.50;;;;;;;;;;5013880;28;20028;-74
2022/04/10 14:17:24;;;;;;;6.97;4.93;;;;;;;;;;5019437;28;20479;-74
2022/04/10 14:19:50;;;;;;;6.38;5.38;;;;;;;;;;5018521;28;20034;-76
2022/04/10 14:22:16;;;;;;;6.85;5.35;;;;;;;;;;5020156;28;20030;-74
2022/04/10 14:24:43;;;;;;;8.43;5.15;;;;;;;;;;5016816;28;20017;-72
2022/04/10 14:27:09;;;;;;;7.45;5.10;;;;;;;;;;5020305;28;20116;-71
2022/04/10 14:29:35;;;;;;;8.63;6.18;;;;;;;;;;5019938;28;20034;-71
2022/04/10 14:32:07;;;;;;;8.95;5.25;;;;;;;;;;5022495;28;20021;-75
2022/04/10 14:34:34;;;;;;;9.98;6.72;;;;;;;;;;5012967;28;20037;-73
2022/04/10 14:37:01;;;;;;;8.45;5.38;;;;;;;;;;5019441;28;20072;-77
2022/04/10 14:39:28;;;;;;;8.20;4.97;;;;;;;;;;5024817;28;20032;-77
2022/04/10 14:41:56;;;;;;;5.65;4.30;;;;;;;;;;5023710;28;20172;-76
2022/04/10 14:44:29;;;;;;;6.07;4.20;;;;;;;;;;5028026;28;20034;-79
2022/04/10 14:46:56;;;;;;;5.55;3.67;;;;;;;;;;5009329;28;20092;-76
2022/04/10 14:49:22;;;;;;;6.00;4.45;;;;;;;;;;5020803;28;20108;-73
2022/04/10 14:51:48;;;;;;;6.72;4.30;;;;;;;;;;5032025;28;20021;-72